DQA226 VRMM-VREI
Flight info
| Callsign | DQA226 |
|---|---|
| Flight time | 0h 22m |
| Altitude | 16000 |
| Route | PILIK1A PILIK Y991 VRMD |
| Aircraft | DH8D/M-SDE2E3FGRY/H |
Departure
| Time | 2026-04-25 15:30 |
|---|---|
| Airport | Velana International Airport (VRMM) |
Arrival
| Time | 2026-04-25 15:52 |
|---|---|
| Airport | Ifuru Airport (VREI) |
| Time | Latitude | Longitude | Altitude | Speed | Heading |
|---|---|---|---|---|---|
| 2026-04-25 15:11 | 4.18869 | 73.52792 | 13 ft | 0 kts | 268° |
| 2026-04-25 15:24 | 4.18869 | 73.52797 | 13 ft | 2 kts | 268° |
| 2026-04-25 15:24 | 4.18870 | 73.52812 | 13 ft | 2 kts | 268° |
| 2026-04-25 15:24 | 4.18870 | 73.52819 | 13 ft | 0 kts | 268° |
| 2026-04-25 15:25 | 4.18877 | 73.52840 | 13 ft | 1 kts | 229° |
| 2026-04-25 15:25 | 4.18889 | 73.52848 | 13 ft | 2 kts | 204° |
| 2026-04-25 15:25 | 4.18901 | 73.52850 | 13 ft | 0 kts | 178° |
| 2026-04-25 15:25 | 4.18902 | 73.52850 | 13 ft | 0 kts | 179° |
| 2026-04-25 15:27 | 4.18857 | 73.52850 | 13 ft | 10 kts | 180° |
| 2026-04-25 15:28 | 4.18757 | 73.52852 | 13 ft | 17 kts | 179° |
| 2026-04-25 15:28 | 4.18684 | 73.52885 | 13 ft | 6 kts | 96° |
| 2026-04-25 15:28 | 4.18647 | 73.52921 | 13 ft | 10 kts | 168° |
| 2026-04-25 15:28 | 4.18562 | 73.52930 | 13 ft | 13 kts | 156° |
| 2026-04-25 15:29 | 4.18543 | 73.53024 | 13 ft | 16 kts | 90° |
| 2026-04-25 15:29 | 4.18616 | 73.53102 | 13 ft | 26 kts | 359° |
| 2026-04-25 15:29 | 4.19072 | 73.53102 | 13 ft | 108 kts | 359° |
| 2026-04-25 15:29 | 4.20021 | 73.53108 | 114 ft | 152 kts | 0° |
| 2026-04-25 15:30 | 4.21132 | 73.53135 | 568 ft | 166 kts | 3° |
| 2026-04-25 15:30 | 4.22342 | 73.53176 | 1119 ft | 179 kts | 1° |
| 2026-04-25 15:30 | 4.23588 | 73.53200 | 1829 ft | 181 kts | 2° |
| 2026-04-25 15:30 | 4.24905 | 73.53232 | 2303 ft | 201 kts | 2° |
| 2026-04-25 15:31 | 4.26436 | 73.53233 | 2460 ft | 230 kts | 360° |
| 2026-04-25 15:31 | 4.28074 | 73.53210 | 3005 ft | 238 kts | 0° |
| 2026-04-25 15:31 | 4.29741 | 73.53190 | 3629 ft | 241 kts | 0° |
| 2026-04-25 15:31 | 4.31452 | 73.53175 | 4228 ft | 244 kts | 0° |
| 2026-04-25 15:32 | 4.33172 | 73.53164 | 4798 ft | 249 kts | 0° |
| 2026-04-25 15:32 | 4.34911 | 73.53155 | 5455 ft | 250 kts | 1° |
| 2026-04-25 15:32 | 4.36657 | 73.53149 | 6044 ft | 253 kts | 1° |
| 2026-04-25 15:33 | 4.40227 | 73.53141 | 7193 ft | 259 kts | 1° |
| 2026-04-25 15:33 | 4.42042 | 73.53121 | 7719 ft | 262 kts | 357° |
| 2026-04-25 15:33 | 4.43871 | 73.52850 | 8257 ft | 265 kts | 350° |
| 2026-04-25 15:33 | 4.45699 | 73.52482 | 8748 ft | 267 kts | 349° |
| 2026-04-25 15:34 | 4.47555 | 73.52108 | 9218 ft | 270 kts | 349° |
| 2026-04-25 15:34 | 4.48790 | 73.51859 | 9311 ft | 280 kts | 349° |
| 2026-04-25 15:34 | 4.51456 | 73.51325 | 9403 ft | 296 kts | 349° |
| 2026-04-25 15:34 | 4.52131 | 73.51191 | 9431 ft | 299 kts | 350° |
| 2026-04-25 15:35 | 4.57718 | 73.50082 | 9932 ft | 309 kts | 350° |
| 2026-04-25 15:35 | 4.59885 | 73.49654 | 9979 ft | 316 kts | 350° |
| 2026-04-25 15:35 | 4.62052 | 73.49225 | 9980 ft | 314 kts | 349° |
| 2026-04-25 15:36 | 4.65538 | 73.48180 | 9964 ft | 311 kts | 328° |
| 2026-04-25 15:36 | 4.67736 | 73.46275 | 9991 ft | 315 kts | 318° |
| 2026-04-25 15:36 | 4.69357 | 73.44764 | 9988 ft | 318 kts | 318° |
| 2026-04-25 15:37 | 4.70986 | 73.43238 | 9990 ft | 320 kts | 317° |
| 2026-04-25 15:37 | 4.72635 | 73.41694 | 9991 ft | 322 kts | 318° |
| 2026-04-25 15:37 | 4.74278 | 73.40155 | 9989 ft | 324 kts | 318° |
| 2026-04-25 15:37 | 4.75951 | 73.38591 | 9990 ft | 325 kts | 317° |
| 2026-04-25 15:38 | 4.77621 | 73.37030 | 9991 ft | 326 kts | 318° |
| 2026-04-25 15:38 | 4.78743 | 73.35982 | 9991 ft | 326 kts | 318° |
| 2026-04-25 15:38 | 4.80976 | 73.33897 | 9991 ft | 327 kts | 317° |
| 2026-04-25 15:38 | 4.82076 | 73.32869 | 9992 ft | 327 kts | 317° |
| 2026-04-25 15:39 | 4.84314 | 73.30778 | 9995 ft | 327 kts | 317° |
| 2026-04-25 15:39 | 4.85446 | 73.29721 | 9997 ft | 328 kts | 317° |
| 2026-04-25 15:39 | 4.87125 | 73.28153 | 9996 ft | 328 kts | 318° |
| 2026-04-25 15:39 | 4.89361 | 73.26064 | 9996 ft | 328 kts | 318° |
| 2026-04-25 15:40 | 4.91043 | 73.24493 | 9999 ft | 328 kts | 317° |
| 2026-04-25 15:40 | 4.91598 | 73.23976 | 9999 ft | 329 kts | 317° |
| 2026-04-25 15:40 | 4.94540 | 73.21555 | 9980 ft | 327 kts | 333° |
| 2026-04-25 15:40 | 4.96629 | 73.20655 | 9995 ft | 326 kts | 339° |
| 2026-04-25 15:41 | 4.98766 | 73.19797 | 9998 ft | 326 kts | 339° |
| 2026-04-25 15:41 | 5.00861 | 73.18966 | 10001 ft | 326 kts | 339° |
| 2026-04-25 15:41 | 5.02988 | 73.18121 | 10001 ft | 327 kts | 339° |
| 2026-04-25 15:41 | 5.05131 | 73.17268 | 9998 ft | 327 kts | 339° |
| 2026-04-25 15:42 | 5.07282 | 73.16409 | 9997 ft | 327 kts | 339° |
| 2026-04-25 15:42 | 5.08687 | 73.15847 | 9995 ft | 327 kts | 339° |
| 2026-04-25 15:42 | 5.11518 | 73.14712 | 9991 ft | 327 kts | 339° |
| 2026-04-25 15:42 | 5.13662 | 73.13850 | 9989 ft | 328 kts | 339° |
| 2026-04-25 15:43 | 5.15048 | 73.13296 | 9964 ft | 311 kts | 340° |
| 2026-04-25 15:43 | 5.17692 | 73.12556 | 9963 ft | 283 kts | 348° |
| 2026-04-25 15:43 | 5.19620 | 73.12136 | 9972 ft | 284 kts | 349° |
| 2026-04-25 15:43 | 5.21593 | 73.11713 | 9822 ft | 291 kts | 349° |
| 2026-04-25 15:44 | 5.23607 | 73.11282 | 9494 ft | 297 kts | 349° |
| 2026-04-25 15:44 | 5.24953 | 73.10991 | 9234 ft | 296 kts | 349° |
| 2026-04-25 15:44 | 5.26954 | 73.10554 | 8820 ft | 288 kts | 349° |
| 2026-04-25 15:44 | 5.29528 | 73.09982 | 8285 ft | 276 kts | 349° |
| 2026-04-25 15:45 | 5.31391 | 73.09567 | 7896 ft | 268 kts | 349° |
| 2026-04-25 15:45 | 5.33203 | 73.09164 | 7518 ft | 261 kts | 349° |
| 2026-04-25 15:45 | 5.34957 | 73.08775 | 7152 ft | 255 kts | 349° |
| 2026-04-25 15:45 | 5.35551 | 73.08643 | 7027 ft | 253 kts | 349° |
| 2026-04-25 15:46 | 5.37809 | 73.08145 | 6557 ft | 247 kts | 349° |
| 2026-04-25 15:46 | 5.40069 | 73.07652 | 6088 ft | 247 kts | 350° |
| 2026-04-25 15:46 | 5.41754 | 73.07285 | 5737 ft | 247 kts | 350° |
| 2026-04-25 15:46 | 5.43456 | 73.06917 | 5382 ft | 247 kts | 350° |
| 2026-04-25 15:47 | 5.44593 | 73.06671 | 5142 ft | 246 kts | 350° |
| 2026-04-25 15:47 | 5.46249 | 73.06308 | 4790 ft | 239 kts | 349° |
| 2026-04-25 15:47 | 5.47852 | 73.05950 | 4453 ft | 234 kts | 349° |
| 2026-04-25 15:47 | 5.49952 | 73.05482 | 4015 ft | 227 kts | 349° |
| 2026-04-25 15:48 | 5.51500 | 73.05140 | 3692 ft | 222 kts | 349° |
| 2026-04-25 15:48 | 5.52997 | 73.04812 | 3379 ft | 220 kts | 349° |
| 2026-04-25 15:48 | 5.54505 | 73.04481 | 3065 ft | 217 kts | 349° |
| 2026-04-25 15:48 | 5.55991 | 73.04175 | 2764 ft | 214 kts | 352° |
| 2026-04-25 15:49 | 5.57406 | 73.03991 | 2501 ft | 196 kts | 355° |
| 2026-04-25 15:49 | 5.58296 | 73.03889 | 2338 ft | 182 kts | 355° |
| 2026-04-25 15:49 | 5.59892 | 73.03711 | 1997 ft | 160 kts | 355° |
| 2026-04-25 15:49 | 5.60928 | 73.03593 | 1791 ft | 136 kts | 355° |
| 2026-04-25 15:50 | 5.61841 | 73.03497 | 1649 ft | 131 kts | 357° |
| 2026-04-25 15:50 | 5.62759 | 73.03413 | 1479 ft | 134 kts | 356° |
| 2026-04-25 15:50 | 5.63714 | 73.03321 | 1292 ft | 139 kts | 355° |
| 2026-04-25 15:50 | 5.64698 | 73.03220 | 1069 ft | 138 kts | 356° |
| 2026-04-25 15:51 | 5.65647 | 73.03119 | 843 ft | 133 kts | 355° |
| 2026-04-25 15:51 | 5.65947 | 73.03086 | 783 ft | 132 kts | 356° |
| 2026-04-25 15:51 | 5.67147 | 73.02948 | 574 ft | 125 kts | 356° |
| 2026-04-25 15:51 | 5.68301 | 73.02792 | 400 ft | 126 kts | 356° |
| 2026-04-25 15:52 | 5.69204 | 73.02700 | 258 ft | 130 kts | 356° |
| 2026-04-25 15:52 | 5.70120 | 73.02589 | 85 ft | 135 kts | 356° |
| 2026-04-25 15:52 | 5.70703 | 73.02520 | 29 ft | 99 kts | 352° |
| 2026-04-25 15:52 | 5.71261 | 73.02455 | 24 ft | 21 kts | 353° |
| 2026-04-25 15:53 | 5.71346 | 73.02433 | 22 ft | 7 kts | 83° |
| 2026-04-25 15:53 | 5.71280 | 73.02453 | 23 ft | 17 kts | 173° |
| 2026-04-25 15:53 | 5.71105 | 73.02473 | 28 ft | 32 kts | 173° |
| 2026-04-25 15:53 | 5.70857 | 73.02501 | 29 ft | 31 kts | 173° |
| 2026-04-25 15:54 | 5.70763 | 73.02508 | 28 ft | 10 kts | 205° |
| 2026-04-25 15:54 | 5.70735 | 73.02442 | 30 ft | 6 kts | 186° |
| 2026-04-25 15:54 | 5.70705 | 73.02447 | 30 ft | 5 kts | 194° |
| 2026-04-25 15:54 | 5.70708 | 73.02432 | 30 ft | 0 kts | 350° |